sensor_id;sensor_type;location;lat;lon;timestamp;P1;durP1;ratioP1;P2;durP2;ratioP2
60464;SDS011;46314;52.392;9.758;2024-03-02T00:01:19;14.10;;;11.85;;
60464;SDS011;46314;52.392;9.758;2024-03-02T00:03:46;13.57;;;11.95;;
60464;SDS011;46314;52.392;9.758;2024-03-02T00:06:12;14.40;;;12.80;;
60464;SDS011;46314;52.392;9.758;2024-03-02T00:08:39;13.25;;;11.60;;
60464;SDS011;46314;52.392;9.758;2024-03-02T00:11:07;15.65;;;13.52;;
60464;SDS011;46314;52.392;9.758;2024-03-02T00:13:34;13.35;;;11.82;;
60464;SDS011;46314;52.392;9.758;2024-03-02T00:16:00;15.63;;;12.70;;
60464;SDS011;46314;52.392;9.758;2024-03-02T00:18:30;14.90;;;12.75;;
60464;SDS011;46314;52.392;9.758;2024-03-02T00:20:57;14.80;;;12.73;;
60464;SDS011;46314;52.392;9.758;2024-03-02T00:23:24;14.73;;;13.13;;
60464;SDS011;46314;52.392;9.758;2024-03-02T00:25:55;15.88;;;13.35;;
60464;SDS011;46314;52.392;9.758;2024-03-02T00:28:23;14.57;;;12.95;;
60464;SDS011;46314;52.392;9.758;2024-03-02T00:30:52;15.90;;;13.00;;
60464;SDS011;46314;52.392;9.758;2024-03-02T00:33:21;15.23;;;11.93;;
60464;SDS011;46314;52.392;9.758;2024-03-02T00:35:49;17.92;;;13.30;;
60464;SDS011;46314;52.392;9.758;2024-03-02T00:38:16;14.93;;;13.43;;
60464;SDS011;46314;52.392;9.758;2024-03-02T00:40:42;15.73;;;14.00;;
60464;SDS011;46314;52.392;9.758;2024-03-02T00:43:11;16.02;;;13.40;;
60464;SDS011;46314;52.392;9.758;2024-03-02T00:46:03;13.40;;;12.00;;
60464;SDS011;46314;52.392;9.758;2024-03-02T00:48:29;16.70;;;13.73;;
60464;SDS011;46314;52.392;9.758;2024-03-02T00:50:57;15.43;;;13.73;;
60464;SDS011;46314;52.392;9.758;2024-03-02T00:53:24;17.05;;;13.90;;
60464;SDS011;46314;52.392;9.758;2024-03-02T00:55:52;15.65;;;13.90;;
60464;SDS011;46314;52.392;9.758;2024-03-02T00:58:19;15.43;;;13.82;;
60464;SDS011;46314;52.392;9.758;2024-03-02T01:00:46;17.13;;;15.20;;
60464;SDS011;46314;52.392;9.758;2024-03-02T01:03:13;17.85;;;14.77;;
60464;SDS011;46314;52.392;9.758;2024-03-02T01:05:40;17.23;;;15.43;;
60464;SDS011;46314;52.392;9.758;2024-03-02T01:08:07;19.67;;;14.18;;
60464;SDS011;46314;52.392;9.758;2024-03-02T01:10:34;19.10;;;15.52;;
60464;SDS011;46314;52.392;9.758;2024-03-02T01:13:00;16.58;;;14.73;;
60464;SDS011;46314;52.392;9.758;2024-03-02T01:15:27;16.52;;;14.77;;
60464;SDS011;46314;52.392;9.758;2024-03-02T01:17:55;16.30;;;14.60;;
60464;SDS011;46314;52.392;9.758;2024-03-02T01:20:21;21.40;;;16.70;;
60464;SDS011;46314;52.392;9.758;2024-03-02T01:22:47;18.83;;;15.60;;
60464;SDS011;46314;52.392;9.758;2024-03-02T01:25:14;20.15;;;16.55;;
60464;SDS011;46314;52.392;9.758;2024-03-02T01:27:40;17.40;;;14.15;;
60464;SDS011;46314;52.392;9.758;2024-03-02T01:30:07;17.73;;;14.18;;
60464;SDS011;46314;52.392;9.758;2024-03-02T01:32:34;16.73;;;14.27;;
60464;SDS011;46314;52.392;9.758;2024-03-02T01:35:02;17.42;;;15.23;;
60464;SDS011;46314;52.392;9.758;2024-03-02T01:37:29;17.52;;;15.57;;
60464;SDS011;46314;52.392;9.758;2024-03-02T01:39:56;20.48;;;15.55;;
60464;SDS011;46314;52.392;9.758;2024-03-02T01:42:22;16.05;;;14.32;;
60464;SDS011;46314;52.392;9.758;2024-03-02T01:44:48;19.40;;;15.15;;
60464;SDS011;46314;52.392;9.758;2024-03-02T01:47:15;20.73;;;16.08;;
60464;SDS011;46314;52.392;9.758;2024-03-02T01:49:41;19.80;;;15.15;;
60464;SDS011;46314;52.392;9.758;2024-03-02T01:52:09;18.08;;;15.63;;
60464;SDS011;46314;52.392;9.758;2024-03-02T01:54:36;18.63;;;15.38;;
60464;SDS011;46314;52.392;9.758;2024-03-02T01:57:02;18.63;;;15.82;;
60464;SDS011;46314;52.392;9.758;2024-03-02T01:59:29;19.45;;;15.40;;
60464;SDS011;46314;52.392;9.758;2024-03-02T02:01:55;19.17;;;15.45;;
60464;SDS011;46314;52.392;9.758;2024-03-02T02:04:22;18.70;;;16.45;;
60464;SDS011;46314;52.392;9.758;2024-03-02T02:06:48;18.33;;;15.18;;
60464;SDS011;46314;52.392;9.758;2024-03-02T02:09:16;21.50;;;16.00;;
60464;SDS011;46314;52.392;9.758;2024-03-02T02:11:42;20.33;;;16.88;;
60464;SDS011;46314;52.392;9.758;2024-03-02T02:14:09;22.20;;;17.27;;
60464;SDS011;46314;52.392;9.758;2024-03-02T02:16:35;21.63;;;17.50;;
60464;SDS011;46314;52.392;9.758;2024-03-02T02:19:02;22.40;;;16.27;;
60464;SDS011;46314;52.392;9.758;2024-03-02T02:21:29;19.42;;;17.30;;
60464;SDS011;46314;52.392;9.758;2024-03-02T02:23:56;20.90;;;16.88;;
60464;SDS011;46314;52.392;9.758;2024-03-02T02:26:22;24.27;;;16.70;;
60464;SDS011;46314;52.392;9.758;2024-03-02T02:28:49;21.20;;;18.20;;
60464;SDS011;46314;52.392;9.758;2024-03-02T02:31:15;21.42;;;18.60;;
60464;SDS011;46314;52.392;9.758;2024-03-02T02:33:42;21.80;;;17.13;;
60464;SDS011;46314;52.392;9.758;2024-03-02T02:36:08;23.85;;;18.15;;
60464;SDS011;46314;52.392;9.758;2024-03-02T02:38:37;21.10;;;17.08;;
60464;SDS011;46314;52.392;9.758;2024-03-02T02:41:07;21.40;;;17.90;;
60464;SDS011;46314;52.392;9.758;2024-03-02T02:43:33;21.13;;;17.67;;
60464;SDS011;46314;52.392;9.758;2024-03-02T02:46:00;20.02;;;16.58;;
60464;SDS011;46314;52.392;9.758;2024-03-02T02:48:26;21.10;;;16.67;;
60464;SDS011;46314;52.392;9.758;2024-03-02T02:50:53;22.90;;;17.83;;
60464;SDS011;46314;52.392;9.758;2024-03-02T02:53:19;23.33;;;18.02;;
60464;SDS011;46314;52.392;9.758;2024-03-02T02:55:47;20.95;;;17.48;;
60464;SDS011;46314;52.392;9.758;2024-03-02T02:58:14;20.02;;;16.77;;
60464;SDS011;46314;52.392;9.758;2024-03-02T03:00:40;21.30;;;16.77;;
60464;SDS011;46314;52.392;9.758;2024-03-02T03:03:06;20.65;;;17.90;;
60464;SDS011;46314;52.392;9.758;2024-03-02T03:05:33;23.10;;;18.08;;
60464;SDS011;46314;52.392;9.758;2024-03-02T03:07:59;23.40;;;17.45;;
60464;SDS011;46314;52.392;9.758;2024-03-02T03:10:26;20.02;;;16.58;;
60464;SDS011;46314;52.392;9.758;2024-03-02T03:12:53;24.77;;;17.40;;
60464;SDS011;46314;52.392;9.758;2024-03-02T03:15:20;20.58;;;17.10;;
60464;SDS011;46314;52.392;9.758;2024-03-02T03:17:48;19.58;;;15.68;;
60464;SDS011;46314;52.392;9.758;2024-03-02T03:20:14;21.13;;;15.75;;
60464;SDS011;46314;52.392;9.758;2024-03-02T03:22:41;22.83;;;17.90;;
60464;SDS011;46314;52.392;9.758;2024-03-02T03:25:07;20.17;;;15.90;;
60464;SDS011;46314;52.392;9.758;2024-03-02T03:27:35;18.05;;;16.02;;
60464;SDS011;46314;52.392;9.758;2024-03-02T03:30:03;18.48;;;16.15;;
60464;SDS011;46314;52.392;9.758;2024-03-02T03:32:29;19.83;;;16.25;;
60464;SDS011;46314;52.392;9.758;2024-03-02T03:34:56;21.88;;;15.68;;
60464;SDS011;46314;52.392;9.758;2024-03-02T03:37:22;19.75;;;15.18;;
60464;SDS011;46314;52.392;9.758;2024-03-02T03:39:49;21.20;;;16.38;;
60464;SDS011;46314;52.392;9.758;2024-03-02T03:42:15;19.45;;;15.32;;
60464;SDS011;46314;52.392;9.758;2024-03-02T03:44:42;20.40;;;14.52;;
60464;SDS011;46314;52.392;9.758;2024-03-02T03:47:09;17.48;;;14.90;;
60464;SDS011;46314;52.392;9.758;2024-03-02T03:49:36;18.85;;;14.82;;
60464;SDS011;46314;52.392;9.758;2024-03-02T03:52:02;20.65;;;16.40;;
60464;SDS011;46314;52.392;9.758;2024-03-02T03:54:29;18.63;;;15.05;;
60464;SDS011;46314;52.392;9.758;2024-03-02T03:56:56;18.25;;;14.65;;
60464;SDS011;46314;52.392;9.758;2024-03-02T03:59:22;18.58;;;14.82;;
60464;SDS011;46314;52.392;9.758;2024-03-02T04:01:49;19.75;;;15.23;;
60464;SDS011;46314;52.392;9.758;2024-03-02T04:04:17;18.10;;;14.90;;
60464;SDS011;46314;52.392;9.758;2024-03-02T04:06:43;19.42;;;14.90;;
60464;SDS011;46314;52.392;9.758;2024-03-02T04:09:09;18.92;;;15.95;;
60464;SDS011;46314;52.392;9.758;2024-03-02T04:11:36;19.77;;;15.63;;
60464;SDS011;46314;52.392;9.758;2024-03-02T04:14:02;21.35;;;15.48;;
60464;SDS011;46314;52.392;9.758;2024-03-02T04:16:29;22.23;;;15.40;;
60464;SDS011;46314;52.392;9.758;2024-03-02T04:18:55;18.52;;;15.60;;
60464;SDS011;46314;52.392;9.758;2024-03-02T04:21:23;18.73;;;15.07;;
60464;SDS011;46314;52.392;9.758;2024-03-02T04:23:49;21.58;;;15.75;;
60464;SDS011;46314;52.392;9.758;2024-03-02T04:26:16;22.25;;;15.65;;
60464;SDS011;46314;52.392;9.758;2024-03-02T04:28:42;22.50;;;16.10;;
60464;SDS011;46314;52.392;9.758;2024-03-02T04:31:09;19.23;;;15.23;;
60464;SDS011;46314;52.392;9.758;2024-03-02T04:33:35;17.23;;;14.73;;
60464;SDS011;46314;52.392;9.758;2024-03-02T04:36:02;18.20;;;14.90;;
60464;SDS011;46314;52.392;9.758;2024-03-02T04:38:30;17.60;;;14.30;;
60464;SDS011;46314;52.392;9.758;2024-03-02T04:40:56;21.33;;;15.15;;
60464;SDS011;46314;52.392;9.758;2024-03-02T04:43:23;19.40;;;15.75;;
60464;SDS011;46314;52.392;9.758;2024-03-02T04:45:49;18.50;;;14.40;;
60464;SDS011;46314;52.392;9.758;2024-03-02T04:48:15;17.73;;;13.95;;
60464;SDS011;46314;52.392;9.758;2024-03-02T04:50:42;18.65;;;14.63;;
60464;SDS011;46314;52.392;9.758;2024-03-02T04:53:08;18.30;;;14.65;;
60464;SDS011;46314;52.392;9.758;2024-03-02T04:55:36;19.38;;;14.90;;
60464;SDS011;46314;52.392;9.758;2024-03-02T04:58:03;19.98;;;15.40;;
60464;SDS011;46314;52.392;9.758;2024-03-02T05:00:29;18.65;;;15.18;;
60464;SDS011;46314;52.392;9.758;2024-03-02T05:02:56;18.63;;;15.35;;
60464;SDS011;46314;52.392;9.758;2024-03-02T05:05:22;19.10;;;15.48;;
60464;SDS011;46314;52.392;9.758;2024-03-02T05:07:49;21.92;;;16.08;;
60464;SDS011;46314;52.392;9.758;2024-03-02T05:10:15;19.30;;;16.02;;
60464;SDS011;46314;52.392;9.758;2024-03-02T05:12:43;20.00;;;15.60;;
60464;SDS011;46314;52.392;9.758;2024-03-02T05:15:10;20.83;;;15.23;;
60464;SDS011;46314;52.392;9.758;2024-03-02T05:17:38;20.83;;;15.65;;
60464;SDS011;46314;52.392;9.758;2024-03-02T05:20:05;20.40;;;16.27;;
60464;SDS011;46314;52.392;9.758;2024-03-02T05:22:33;21.33;;;14.98;;
60464;SDS011;46314;52.392;9.758;2024-03-02T05:24:59;22.73;;;15.95;;
60464;SDS011;46314;52.392;9.758;2024-03-02T05:27:26;23.52;;;16.70;;
60464;SDS011;46314;52.392;9.758;2024-03-02T05:29:54;24.23;;;18.02;;
60464;SDS011;46314;52.392;9.758;2024-03-02T05:32:20;22.75;;;16.98;;
60464;SDS011;46314;52.392;9.758;2024-03-02T05:34:47;23.60;;;18.02;;
60464;SDS011;46314;52.392;9.758;2024-03-02T05:37:13;22.25;;;17.73;;
60464;SDS011;46314;52.392;9.758;2024-03-02T05:39:40;24.20;;;17.63;;
60464;SDS011;46314;52.392;9.758;2024-03-02T05:42:06;23.27;;;16.73;;
60464;SDS011;46314;52.392;9.758;2024-03-02T05:44:33;23.00;;;18.65;;
60464;SDS011;46314;52.392;9.758;2024-03-02T05:47:00;25.45;;;17.88;;
60464;SDS011;46314;52.392;9.758;2024-03-02T05:49:27;24.95;;;18.90;;
60464;SDS011;46314;52.392;9.758;2024-03-02T05:51:53;26.77;;;19.67;;
60464;SDS011;46314;52.392;9.758;2024-03-02T05:54:20;24.70;;;17.42;;
60464;SDS011;46314;52.392;9.758;2024-03-02T05:56:47;26.45;;;19.45;;
60464;SDS011;46314;52.392;9.758;2024-03-02T05:59:13;27.33;;;19.17;;
60464;SDS011;46314;52.392;9.758;2024-03-02T06:01:39;27.92;;;19.88;;
60464;SDS011;46314;52.392;9.758;2024-03-02T06:04:07;25.08;;;20.38;;
60464;SDS011;46314;52.392;9.758;2024-03-02T06:06:34;25.23;;;18.67;;
60464;SDS011;46314;52.392;9.758;2024-03-02T06:09:01;25.38;;;19.83;;
60464;SDS011;46314;52.392;9.758;2024-03-02T06:11:27;25.38;;;19.83;;
60464;SDS011;46314;52.392;9.758;2024-03-02T06:13:54;24.92;;;18.95;;
60464;SDS011;46314;52.392;9.758;2024-03-02T06:16:20;25.33;;;19.48;;
60464;SDS011;46314;52.392;9.758;2024-03-02T06:18:47;24.10;;;19.20;;
60464;SDS011;46314;52.392;9.758;2024-03-02T06:21:14;27.23;;;19.40;;
60464;SDS011;46314;52.392;9.758;2024-03-02T06:23:41;27.88;;;19.90;;
60464;SDS011;46314;52.392;9.758;2024-03-02T06:26:07;27.63;;;20.02;;
60464;SDS011;46314;52.392;9.758;2024-03-02T06:28:34;25.33;;;19.58;;
60464;SDS011;46314;52.392;9.758;2024-03-02T06:31:01;27.50;;;20.27;;
60464;SDS011;46314;52.392;9.758;2024-03-02T06:33:28;27.52;;;20.75;;
60464;SDS011;46314;52.392;9.758;2024-03-02T06:35:55;26.05;;;18.98;;
60464;SDS011;46314;52.392;9.758;2024-03-02T06:38:23;26.25;;;20.30;;
60464;SDS011;46314;52.392;9.758;2024-03-02T06:40:49;26.50;;;19.73;;
60464;SDS011;46314;52.392;9.758;2024-03-02T06:43:16;24.33;;;19.00;;
60464;SDS011;46314;52.392;9.758;2024-03-02T06:45:42;23.95;;;19.30;;
60464;SDS011;46314;52.392;9.758;2024-03-02T06:48:08;29.55;;;20.23;;
60464;SDS011;46314;52.392;9.758;2024-03-02T06:50:35;24.52;;;19.48;;
60464;SDS011;46314;52.392;9.758;2024-03-02T06:53:02;25.60;;;18.98;;
60464;SDS011;46314;52.392;9.758;2024-03-02T06:55:29;27.65;;;20.02;;
60464;SDS011;46314;52.392;9.758;2024-03-02T06:57:56;27.02;;;20.15;;
60464;SDS011;46314;52.392;9.758;2024-03-02T07:00:22;25.98;;;19.92;;
60464;SDS011;46314;52.392;9.758;2024-03-02T07:02:49;25.23;;;20.58;;
60464;SDS011;46314;52.392;9.758;2024-03-02T07:05:15;22.55;;;18.02;;
60464;SDS011;46314;52.392;9.758;2024-03-02T07:07:42;28.95;;;21.27;;
60464;SDS011;46314;52.392;9.758;2024-03-02T07:10:09;27.92;;;19.92;;
60464;SDS011;46314;52.392;9.758;2024-03-02T07:12:36;26.25;;;20.42;;
60464;SDS011;46314;52.392;9.758;2024-03-02T07:15:03;25.63;;;19.65;;
60464;SDS011;46314;52.392;9.758;2024-03-02T07:17:30;25.77;;;19.88;;
60464;SDS011;46314;52.392;9.758;2024-03-02T07:19:58;24.42;;;19.52;;
60464;SDS011;46314;52.392;9.758;2024-03-02T07:22:24;30.45;;;21.45;;
60464;SDS011;46314;52.392;9.758;2024-03-02T07:24:51;27.38;;;19.10;;
60464;SDS011;46314;52.392;9.758;2024-03-02T07:27:17;22.75;;;17.45;;
60464;SDS011;46314;52.392;9.758;2024-03-02T07:29:46;24.35;;;18.73;;
60464;SDS011;46314;52.392;9.758;2024-03-02T07:32:12;25.58;;;18.83;;
60464;SDS011;46314;52.392;9.758;2024-03-02T07:34:39;23.63;;;19.48;;
60464;SDS011;46314;52.392;9.758;2024-03-02T07:37:05;24.88;;;19.05;;
60464;SDS011;46314;52.392;9.758;2024-03-02T07:39:32;23.48;;;18.67;;
60464;SDS011;46314;52.392;9.758;2024-03-02T07:41:59;23.58;;;18.35;;
60464;SDS011;46314;52.392;9.758;2024-03-02T07:44:26;22.02;;;18.35;;
60464;SDS011;46314;52.392;9.758;2024-03-02T07:46:54;25.88;;;19.58;;
60464;SDS011;46314;52.392;9.758;2024-03-02T07:49:21;20.45;;;17.48;;
60464;SDS011;46314;52.392;9.758;2024-03-02T07:51:47;25.58;;;18.90;;
60464;SDS011;46314;52.392;9.758;2024-03-02T07:54:14;24.88;;;18.65;;
60464;SDS011;46314;52.392;9.758;2024-03-02T07:56:40;22.95;;;18.50;;
60464;SDS011;46314;52.392;9.758;2024-03-02T07:59:07;22.17;;;17.35;;
60464;SDS011;46314;52.392;9.758;2024-03-02T08:01:33;25.50;;;19.55;;
60464;SDS011;46314;52.392;9.758;2024-03-02T08:04:02;24.90;;;19.50;;
60464;SDS011;46314;52.392;9.758;2024-03-02T08:06:29;23.65;;;18.48;;
60464;SDS011;46314;52.392;9.758;2024-03-02T08:08:56;27.35;;;18.48;;
60464;SDS011;46314;52.392;9.758;2024-03-02T08:11:23;23.95;;;17.77;;
60464;SDS011;46314;52.392;9.758;2024-03-02T08:13:50;26.00;;;19.27;;
60464;SDS011;46314;52.392;9.758;2024-03-02T08:16:17;23.40;;;18.30;;
60464;SDS011;46314;52.392;9.758;2024-03-02T08:18:43;25.00;;;19.88;;
60464;SDS011;46314;52.392;9.758;2024-03-02T08:21:11;27.15;;;18.73;;
60464;SDS011;46314;52.392;9.758;2024-03-02T08:23:38;22.30;;;17.75;;
60464;SDS011;46314;52.392;9.758;2024-03-02T08:26:07;23.90;;;19.55;;
60464;SDS011;46314;52.392;9.758;2024-03-02T08:28:34;22.05;;;17.40;;
60464;SDS011;46314;52.392;9.758;2024-03-02T08:31:00;23.27;;;18.40;;
60464;SDS011;46314;52.392;9.758;2024-03-02T08:33:27;21.77;;;18.02;;
60464;SDS011;46314;52.392;9.758;2024-03-02T08:35:53;26.15;;;19.10;;
60464;SDS011;46314;52.392;9.758;2024-03-02T08:38:21;23.33;;;19.02;;
60464;SDS011;46314;52.392;9.758;2024-03-02T08:40:48;20.65;;;17.73;;
60464;SDS011;46314;52.392;9.758;2024-03-02T08:43:16;23.30;;;18.35;;
60464;SDS011;46314;52.392;9.758;2024-03-02T08:45:42;20.90;;;16.48;;
60464;SDS011;46314;52.392;9.758;2024-03-02T08:48:09;21.50;;;17.65;;
60464;SDS011;46314;52.392;9.758;2024-03-02T08:50:35;19.20;;;16.75;;
60464;SDS011;46314;52.392;9.758;2024-03-02T08:53:02;20.95;;;17.50;;
60464;SDS011;46314;52.392;9.758;2024-03-02T08:55:31;22.08;;;18.25;;
60464;SDS011;46314;52.392;9.758;2024-03-02T08:57:57;20.25;;;16.38;;
60464;SDS011;46314;52.392;9.758;2024-03-02T09:00:24;18.92;;;16.15;;
60464;SDS011;46314;52.392;9.758;2024-03-02T09:02:51;21.55;;;17.92;;
60464;SDS011;46314;52.392;9.758;2024-03-02T09:05:17;21.25;;;17.42;;
60464;SDS011;46314;52.392;9.758;2024-03-02T09:07:44;19.38;;;15.88;;
60464;SDS011;46314;52.392;9.758;2024-03-02T09:10:10;20.30;;;16.77;;
60464;SDS011;46314;52.392;9.758;2024-03-02T09:12:38;22.85;;;15.77;;
60464;SDS011;46314;52.392;9.758;2024-03-02T09:15:05;21.38;;;15.70;;
60464;SDS011;46314;52.392;9.758;2024-03-02T09:17:32;19.60;;;16.48;;
60464;SDS011;46314;52.392;9.758;2024-03-02T09:19:59;20.50;;;15.73;;
60464;SDS011;46314;52.392;9.758;2024-03-02T09:22:25;19.88;;;16.15;;
60464;SDS011;46314;52.392;9.758;2024-03-02T09:24:52;20.23;;;16.10;;
60464;SDS011;46314;52.392;9.758;2024-03-02T09:27:18;18.35;;;14.63;;
60464;SDS011;46314;52.392;9.758;2024-03-02T09:29:47;20.52;;;15.35;;
60464;SDS011;46314;52.392;9.758;2024-03-02T09:32:14;20.48;;;14.80;;
60464;SDS011;46314;52.392;9.758;2024-03-02T09:34:40;20.35;;;14.95;;
60464;SDS011;46314;52.392;9.758;2024-03-02T09:37:07;17.95;;;14.55;;
60464;SDS011;46314;52.392;9.758;2024-03-02T09:39:33;21.55;;;16.98;;
60464;SDS011;46314;52.392;9.758;2024-03-02T09:42:00;18.27;;;14.40;;
60464;SDS011;46314;52.392;9.758;2024-03-02T09:44:26;19.33;;;15.10;;
60464;SDS011;46314;52.392;9.758;2024-03-02T09:46:54;18.83;;;15.00;;
60464;SDS011;46314;52.392;9.758;2024-03-02T09:49:21;17.98;;;15.30;;
60464;SDS011;46314;52.392;9.758;2024-03-02T09:51:48;18.30;;;14.27;;
60464;SDS011;46314;52.392;9.758;2024-03-02T09:54:15;18.52;;;15.07;;
60464;SDS011;46314;52.392;9.758;2024-03-02T09:56:48;16.58;;;14.23;;
60464;SDS011;46314;52.392;9.758;2024-03-02T09:59:15;19.00;;;14.60;;
60464;SDS011;46314;52.392;9.758;2024-03-02T10:01:51;18.33;;;14.10;;
60464;SDS011;46314;52.392;9.758;2024-03-02T10:04:23;17.30;;;14.73;;
60464;SDS011;46314;52.392;9.758;2024-03-02T10:06:51;17.20;;;13.65;;
60464;SDS011;46314;52.392;9.758;2024-03-02T10:09:26;18.15;;;14.60;;
60464;SDS011;46314;52.392;9.758;2024-03-02T10:11:53;18.45;;;14.95;;
60464;SDS011;46314;52.392;9.758;2024-03-02T10:14:19;18.25;;;15.25;;
60464;SDS011;46314;52.392;9.758;2024-03-02T10:16:46;16.92;;;13.63;;
60464;SDS011;46314;52.392;9.758;2024-03-02T10:19:17;19.98;;;15.15;;
60464;SDS011;46314;52.392;9.758;2024-03-02T10:21:44;18.38;;;14.93;;
60464;SDS011;46314;52.392;9.758;2024-03-02T10:24:11;17.77;;;14.90;;
60464;SDS011;46314;52.392;9.758;2024-03-02T10:26:38;17.73;;;13.60;;
60464;SDS011;46314;52.392;9.758;2024-03-02T10:29:04;16.25;;;13.57;;
60464;SDS011;46314;52.392;9.758;2024-03-02T10:31:31;18.27;;;14.10;;
60464;SDS011;46314;52.392;9.758;2024-03-02T10:33:58;16.95;;;14.63;;
60464;SDS011;46314;52.392;9.758;2024-03-02T10:36:27;15.27;;;13.38;;
60464;SDS011;46314;52.392;9.758;2024-03-02T10:38:55;15.05;;;13.02;;
60464;SDS011;46314;52.392;9.758;2024-03-02T10:41:22;17.95;;;14.30;;
60464;SDS011;46314;52.392;9.758;2024-03-02T10:43:50;17.17;;;14.10;;
60464;SDS011;46314;52.392;9.758;2024-03-02T10:46:18;17.48;;;14.32;;
60464;SDS011;46314;52.392;9.758;2024-03-02T10:48:46;16.83;;;14.10;;
60464;SDS011;46314;52.392;9.758;2024-03-02T10:51:12;19.33;;;14.20;;
60464;SDS011;46314;52.392;9.758;2024-03-02T10:53:40;16.67;;;13.05;;
60464;SDS011;46314;52.392;9.758;2024-03-02T10:56:07;18.40;;;13.48;;
60464;SDS011;46314;52.392;9.758;2024-03-02T10:58:37;15.85;;;12.35;;
60464;SDS011;46314;52.392;9.758;2024-03-02T11:01:03;12.52;;;11.07;;
60464;SDS011;46314;52.392;9.758;2024-03-02T11:03:33;13.75;;;11.23;;
60464;SDS011;46314;52.392;9.758;2024-03-02T11:06:02;13.07;;;11.68;;
60464;SDS011;46314;52.392;9.758;2024-03-02T11:08:33;17.10;;;11.57;;
60464;SDS011;46314;52.392;9.758;2024-03-02T11:11:03;15.35;;;11.27;;
60464;SDS011;46314;52.392;9.758;2024-03-02T11:13:33;15.13;;;11.57;;
60464;SDS011;46314;52.392;9.758;2024-03-02T11:16:05;15.65;;;11.15;;
60464;SDS011;46314;52.392;9.758;2024-03-02T11:18:38;11.50;;;9.68;;
60464;SDS011;46314;52.392;9.758;2024-03-02T11:21:06;14.27;;;10.77;;
60464;SDS011;46314;52.392;9.758;2024-03-02T11:23:33;13.18;;;10.82;;
60464;SDS011;46314;52.392;9.758;2024-03-02T11:26:20;11.35;;;10.15;;
60464;SDS011;46314;52.392;9.758;2024-03-02T11:28:47;13.50;;;10.75;;
60464;SDS011;46314;52.392;9.758;2024-03-02T11:31:14;12.98;;;10.35;;
60464;SDS011;46314;52.392;9.758;2024-03-02T11:33:40;13.43;;;9.70;;
60464;SDS011;46314;52.392;9.758;2024-03-02T11:36:07;12.30;;;10.80;;
60464;SDS011;46314;52.392;9.758;2024-03-02T11:38:37;12.98;;;9.52;;
60464;SDS011;46314;52.392;9.758;2024-03-02T11:41:06;10.85;;;9.05;;
60464;SDS011;46314;52.392;9.758;2024-03-02T11:43:34;11.30;;;8.50;;
60464;SDS011;46314;52.392;9.758;2024-03-02T11:46:03;10.05;;;8.15;;
60464;SDS011;46314;52.392;9.758;2024-03-02T11:48:31;8.38;;;7.35;;
60464;SDS011;46314;52.392;9.758;2024-03-02T11:50:58;8.93;;;7.72;;
60464;SDS011;46314;52.392;9.758;2024-03-02T11:53:26;8.80;;;7.43;;
60464;SDS011;46314;52.392;9.758;2024-03-02T11:55:55;11.43;;;8.30;;
60464;SDS011;46314;52.392;9.758;2024-03-02T11:58:22;10.85;;;8.02;;
60464;SDS011;46314;52.392;9.758;2024-03-02T12:00:51;8.18;;;7.28;;
60464;SDS011;46314;52.392;9.758;2024-03-02T12:03:18;8.30;;;6.82;;
60464;SDS011;46314;52.392;9.758;2024-03-02T12:05:47;8.77;;;7.28;;
60464;SDS011;46314;52.392;9.758;2024-03-02T12:08:15;9.73;;;6.80;;
60464;SDS011;46314;52.392;9.758;2024-03-02T12:10:42;8.80;;;6.70;;
60464;SDS011;46314;52.392;9.758;2024-03-02T12:13:09;9.85;;;7.40;;
60464;SDS011;46314;52.392;9.758;2024-03-02T12:15:37;8.73;;;7.00;;
60464;SDS011;46314;52.392;9.758;2024-03-02T12:18:06;7.78;;;6.05;;
60464;SDS011;46314;52.392;9.758;2024-03-02T12:20:33;12.75;;;6.82;;
60464;SDS011;46314;52.392;9.758;2024-03-02T12:23:00;8.57;;;6.57;;
60464;SDS011;46314;52.392;9.758;2024-03-02T12:25:28;9.50;;;6.32;;
60464;SDS011;46314;52.392;9.758;2024-03-02T12:27:57;9.18;;;6.72;;
60464;SDS011;46314;52.392;9.758;2024-03-02T12:30:26;8.07;;;6.47;;
60464;SDS011;46314;52.392;9.758;2024-03-02T12:32:55;7.28;;;5.90;;
60464;SDS011;46314;52.392;9.758;2024-03-02T12:35:23;6.85;;;5.70;;
60464;SDS011;46314;52.392;9.758;2024-03-02T12:37:51;8.65;;;6.20;;
60464;SDS011;46314;52.392;9.758;2024-03-02T12:40:19;6.72;;;5.45;;
60464;SDS011;46314;52.392;9.758;2024-03-02T12:42:47;6.38;;;5.40;;
60464;SDS011;46314;52.392;9.758;2024-03-02T12:45:13;7.50;;;5.47;;
60464;SDS011;46314;52.392;9.758;2024-03-02T12:47:40;8.13;;;5.95;;
60464;SDS011;46314;52.392;9.758;2024-03-02T12:50:08;7.07;;;5.85;;
60464;SDS011;46314;52.392;9.758;2024-03-02T12:52:37;6.55;;;5.82;;
60464;SDS011;46314;52.392;9.758;2024-03-02T12:55:04;6.68;;;4.90;;
60464;SDS011;46314;52.392;9.758;2024-03-02T12:57:32;5.88;;;4.88;;
60464;SDS011;46314;52.392;9.758;2024-03-02T12:59:59;6.60;;;5.72;;
60464;SDS011;46314;52.392;9.758;2024-03-02T13:02:30;8.15;;;4.85;;
60464;SDS011;46314;52.392;9.758;2024-03-02T13:04:57;7.10;;;5.13;;
60464;SDS011;46314;52.392;9.758;2024-03-02T13:07:24;7.47;;;5.63;;
60464;SDS011;46314;52.392;9.758;2024-03-02T13:09:53;6.47;;;5.32;;
60464;SDS011;46314;52.392;9.758;2024-03-02T13:12:22;5.22;;;4.70;;
60464;SDS011;46314;52.392;9.758;2024-03-02T13:14:49;6.22;;;5.03;;
60464;SDS011;46314;52.392;9.758;2024-03-02T13:17:17;6.60;;;3.92;;
60464;SDS011;46314;52.392;9.758;2024-03-02T13:19:50;5.75;;;3.78;;
60464;SDS011;46314;52.392;9.758;2024-03-02T13:22:17;4.32;;;3.78;;
60464;SDS011;46314;52.392;9.758;2024-03-02T13:24:44;5.45;;;3.97;;
60464;SDS011;46314;52.392;9.758;2024-03-02T13:27:12;4.70;;;4.20;;
60464;SDS011;46314;52.392;9.758;2024-03-02T13:29:38;10.63;;;4.40;;
60464;SDS011;46314;52.392;9.758;2024-03-02T13:32:05;4.70;;;3.13;;
60464;SDS011;46314;52.392;9.758;2024-03-02T13:34:32;5.65;;;3.47;;
60464;SDS011;46314;52.392;9.758;2024-03-02T13:36:58;6.30;;;3.13;;
60464;SDS011;46314;52.392;9.758;2024-03-02T13:39:25;5.05;;;3.50;;
60464;SDS011;46314;52.392;9.758;2024-03-02T13:41:51;4.05;;;3.13;;
60464;SDS011;46314;52.392;9.758;2024-03-02T13:44:19;5.13;;;3.55;;
60464;SDS011;46314;52.392;9.758;2024-03-02T13:46:45;3.50;;;3.03;;
60464;SDS011;46314;52.392;9.758;2024-03-02T13:49:12;4.78;;;3.45;;
60464;SDS011;46314;52.392;9.758;2024-03-02T13:51:38;4.18;;;3.03;;
60464;SDS011;46314;52.392;9.758;2024-03-02T13:54:05;5.18;;;3.15;;
60464;SDS011;46314;52.392;9.758;2024-03-02T13:56:32;3.20;;;2.72;;
60464;SDS011;46314;52.392;9.758;2024-03-02T13:58:58;5.05;;;3.25;;
60464;SDS011;46314;52.392;9.758;2024-03-02T14:01:26;4.82;;;2.78;;
60464;SDS011;46314;52.392;9.758;2024-03-02T14:03:53;3.42;;;2.75;;
60464;SDS011;46314;52.392;9.758;2024-03-02T14:06:19;4.35;;;2.80;;
60464;SDS011;46314;52.392;9.758;2024-03-02T14:08:46;4.70;;;3.65;;
60464;SDS011;46314;52.392;9.758;2024-03-02T14:11:13;4.95;;;3.70;;
60464;SDS011;46314;52.392;9.758;2024-03-02T14:13:40;3.92;;;3.42;;
60464;SDS011;46314;52.392;9.758;2024-03-02T14:16:06;4.97;;;3.45;;
60464;SDS011;46314;52.392;9.758;2024-03-02T14:18:34;5.32;;;3.70;;
60464;SDS011;46314;52.392;9.758;2024-03-02T14:21:01;6.80;;;4.70;;
60464;SDS011;46314;52.392;9.758;2024-03-02T14:23:27;5.05;;;4.13;;
60464;SDS011;46314;52.392;9.758;2024-03-02T14:25:53;6.32;;;4.18;;